Time,TemperatureF,DewpointF,PressureIn,WindDirection,WindDirectionDegrees,WindSpeedMPH,WindSpeedGustMPH,Humidity,HourlyPrecipIn,Conditions,Clouds,dailyrainin,SoftwareType,DateUTC
2013-09-20 00:13:00,67.0,66.0,29.72,West,271,4.0,7.0,96,0.00,,,1.42,,2013-09-20 05:13:00,
2013-09-20 00:23:00,67.0,66.0,29.71,WSW,246,3.0,7.0,96,0.00,,,1.42,,2013-09-20 05:23:00,
2013-09-20 00:53:00,66.0,65.0,29.70,WNW,292,1.0,4.0,96,0.00,,,1.42,,2013-09-20 05:53:00,
2013-09-20 01:12:00,66.0,65.0,29.70,WNW,292,0.0,1.0,96,0.00,,,1.42,,2013-09-20 06:12:00,
2013-09-20 01:22:00,66.0,65.0,29.71,WSW,256,0.0,2.0,96,0.00,,,1.42,,2013-09-20 06:22:00,
2013-09-20 01:52:00,66.0,65.0,29.71,WSW,249,2.0,5.0,97,0.00,,,1.42,,2013-09-20 06:52:00,
2013-09-20 02:11:00,66.0,65.0,29.71,West,279,1.0,3.0,97,0.00,,,1.42,,2013-09-20 07:11:00,
2013-09-20 02:23:00,66.0,65.0,29.71,West,269,1.0,4.0,97,0.00,,,1.42,,2013-09-20 07:23:00,
2013-09-20 02:42:00,66.0,65.0,29.70,WSW,258,1.0,3.0,97,0.00,,,1.42,,2013-09-20 07:42:00,
2013-09-20 02:53:00,66.0,65.0,29.70,SW,219,1.0,4.0,97,0.00,,,1.42,,2013-09-20 07:53:00,
2013-09-20 03:11:00,66.0,65.0,29.70,West,271,0.0,3.0,97,0.00,,,1.42,,2013-09-20 08:11:00,
2013-09-20 03:22:00,66.0,65.0,29.70,WNW,294,1.0,4.0,97,0.00,,,1.42,,2013-09-20 08:22:00,
2013-09-20 03:52:00,66.0,65.0,29.70,West,271,4.0,6.0,97,0.01,,,1.43,,2013-09-20 08:52:00,
2013-09-20 04:12:00,66.0,65.0,29.70,West,271,4.0,8.0,96,0.01,,,1.43,,2013-09-20 09:12:00,
2013-09-20 04:22:00,66.0,65.0,29.70,WNW,288,4.0,7.0,96,0.01,,,1.43,,2013-09-20 09:22:00,
2013-09-20 04:43:00,66.0,65.0,29.70,WNW,291,2.0,8.0,96,0.00,,,1.43,,2013-09-20 09:43:00,
2013-09-20 04:53:00,66.0,65.0,29.70,West,269,4.0,9.0,96,0.00,,,1.43,,2013-09-20 09:53:00,
2013-09-20 05:12:00,65.0,64.0,29.69,WNW,290,3.0,10.0,95,0.00,,,1.43,,2013-09-20 10:12:00,
2013-09-20 05:23:00,65.0,64.0,29.69,West,271,4.0,8.0,96,0.00,,,1.33,,2013-09-20 10:23:00,
2013-09-20 05:42:00,65.0,64.0,29.69,WNW,289,5.0,10.0,95,0.00,,,1.33,,2013-09-20 10:42:00,
2013-09-20 05:53:00,65.0,64.0,29.70,WNW,296,6.0,10.0,95,0.00,,,1.33,,2013-09-20 10:53:00,
2013-09-20 06:12:00,65.0,63.0,29.70,WNW,289,6.0,10.0,94,0.00,,,1.33,,2013-09-20 11:12:00,
2013-09-20 06:23:00,64.0,62.0,29.70,West,265,7.0,13.0,94,0.00,,,1.10,,2013-09-20 11:23:00,
2013-09-20 06:42:00,64.0,62.0,29.70,WNW,292,3.0,12.0,93,0.00,,,1.10,,2013-09-20 11:42:00,
2013-09-20 06:52:00,64.0,62.0,29.71,West,269,4.0,10.0,94,0.00,,,1.10,,2013-09-20 11:52:00,
2013-09-20 07:12:00,64.0,62.0,29.71,WNW,301,1.0,8.0,93,0.00,,,1.10,,2013-09-20 12:12:00,
2013-09-20 07:22:00,63.0,61.0,29.72,West,273,3.0,8.0,93,0.00,,,0.95,,2013-09-20 12:22:00,
2013-09-20 07:42:00,63.0,61.0,29.72,WNW,291,4.0,8.0,93,0.00,,,0.95,,2013-09-20 12:42:00,
2013-09-20 07:52:00,63.0,61.0,29.73,SW,217,5.0,10.0,94,0.00,,,0.95,,2013-09-20 12:52:00,
2013-09-20 08:12:00,63.0,61.0,29.73,WSW,244,5.0,11.0,94,0.00,,,0.95,,2013-09-20 13:12:00,
2013-09-20 08:21:00,63.0,61.0,29.73,WNW,289,5.0,10.0,92,0.00,,,0.95,,2013-09-20 13:21:00,
2013-09-20 08:42:00,63.0,61.0,29.73,WSW,250,4.0,10.0,92,0.00,,,0.95,,2013-09-20 13:42:00,
2013-09-20 08:52:00,63.0,60.0,29.73,WNW,283,3.0,9.0,91,0.00,,,0.95,,2013-09-20 13:52:00,
2013-09-20 09:11:00,63.0,60.0,29.74,WNW,282,5.0,10.0,89,0.00,,,0.95,,2013-09-20 14:11:00,
2013-09-20 09:21:00,63.0,60.0,29.74,WSW,255,5.0,12.0,89,0.00,,,0.95,,2013-09-20 14:21:00,
2013-09-20 09:42:00,62.0,58.0,29.75,WNW,287,6.0,14.0,88,0.00,,,0.95,,2013-09-20 14:42:00,
2013-09-20 09:52:00,61.0,58.0,29.75,WSW,258,6.0,10.0,89,0.00,,,0.95,,2013-09-20 14:52:00,
2013-09-20 10:12:00,61.0,58.0,29.75,WNW,300,3.0,12.0,90,0.00,,,0.95,,2013-09-20 15:12:00,
2013-09-20 10:22:00,60.0,57.0,29.76,West,268,3.0,10.0,90,0.00,,,0.94,,2013-09-20 15:22:00,
2013-09-20 10:44:00,60.0,57.0,29.77,WSW,251,4.0,11.0,90,0.00,,,0.94,,2013-09-20 15:44:00,
2013-09-20 10:54:00,60.0,57.0,29.77,West,273,6.0,13.0,91,0.00,,,0.94,,2013-09-20 15:54:00,
2013-09-20 11:13:00,59.0,57.0,29.76,WNW,285,5.0,10.0,92,0.00,,,0.94,,2013-09-20 16:13:00,
2013-09-20 11:23:00,59.0,57.0,29.77,WNW,282,4.0,11.0,92,0.00,,,0.94,,2013-09-20 16:23:00,
2013-09-20 11:42:00,59.0,56.0,29.76,SW,236,6.0,11.0,91,0.00,,,0.94,,2013-09-20 16:42:00,
2013-09-20 11:53:00,60.0,57.0,29.76,WNW,299,4.0,13.0,90,0.00,,,0.94,,2013-09-20 16:53:00,
2013-09-20 12:13:00,60.0,57.0,29.76,West,277,4.0,9.0,90,0.00,,,0.94,,2013-09-20 17:13:00,
2013-09-20 12:24:00,60.0,57.0,29.75,NW,304,6.0,11.0,89,0.00,,,0.94,,2013-09-20 17:24:00,
2013-09-20 12:42:00,61.0,57.0,29.75,West,273,5.0,12.0,87,0.00,,,0.94,,2013-09-20 17:42:00,
2013-09-20 12:53:00,62.0,58.0,29.75,West,260,7.0,12.0,86,0.00,,,0.94,,2013-09-20 17:53:00,
2013-09-20 13:12:00,62.0,56.0,29.75,NNW,344,6.0,13.0,81,0.00,,,0.94,,2013-09-20 18:12:00,
2013-09-20 13:22:00,62.0,56.0,29.75,WNW,282,7.0,17.0,81,0.00,,,0.94,,2013-09-20 18:22:00,
2013-09-20 13:42:00,61.0,56.0,29.75,NNW,339,7.0,13.0,83,0.00,,,0.94,,2013-09-20 18:42:00,
2013-09-20 13:52:00,61.0,56.0,29.75,West,267,6.0,14.0,84,0.00,,,0.94,,2013-09-20 18:52:00,
2013-09-20 14:11:00,61.0,56.0,29.75,WSW,239,8.0,15.0,83,0.00,,,0.94,,2013-09-20 19:11:00,
2013-09-20 14:22:00,61.0,55.0,29.75,West,273,8.0,14.0,82,0.00,,,0.94,,2013-09-20 19:22:00,
2013-09-20 14:42:00,62.0,56.0,29.75,WNW,288,6.0,12.0,82,0.00,,,0.94,,2013-09-20 19:42:00,
2013-09-20 14:53:00,62.0,56.0,29.74,West,263,6.0,11.0,80,0.00,,,0.94,,2013-09-20 19:53:00,
2013-09-20 15:12:00,63.0,56.0,29.73,West,267,5.0,14.0,79,0.00,,,0.94,,2013-09-20 20:12:00,
2013-09-20 15:22:00,65.0,57.0,29.73,NW,304,4.0,12.0,75,0.00,,,0.92,,2013-09-20 20:22:00,
2013-09-20 15:42:00,64.0,56.0,29.73,WNW,296,2.0,12.0,76,0.00,,,0.92,,2013-09-20 20:42:00,
2013-09-20 15:52:00,64.0,56.0,29.73,West,261,6.0,12.0,76,0.00,,,0.92,,2013-09-20 20:52:00,
2013-09-20 16:12:00,64.0,56.0,29.74,West,267,4.0,11.0,76,0.00,,,0.92,,2013-09-20 21:12:00,
2013-09-20 16:21:00,64.0,55.0,29.73,NNW,333,8.0,16.0,73,0.00,,,0.92,,2013-09-20 21:21:00,
2013-09-20 16:55:00,61.0,55.0,29.75,WNW,283,7.0,18.0,82,0.01,,,0.93,,2013-09-20 21:55:00,
2013-09-20 17:14:00,59.0,55.0,29.75,West,280,5.0,24.0,86,0.01,,,0.93,,2013-09-20 22:14:00,
2013-09-20 17:23:00,59.0,55.0,29.75,WNW,294,5.0,11.0,88,0.01,,,0.93,,2013-09-20 22:23:00,
2013-09-20 17:44:00,60.0,56.0,29.75,WSW,240,8.0,15.0,88,0.01,,,0.93,,2013-09-20 22:44:00,
2013-09-20 17:53:00,60.0,56.0,29.75,West,273,8.0,16.0,88,0.00,,,0.93,,2013-09-20 22:53:00,
2013-09-20 18:13:00,60.0,56.0,29.75,West,272,8.0,14.0,86,0.00,,,0.93,,2013-09-20 23:13:00,
2013-09-20 18:22:00,59.0,55.0,29.75,West,270,7.0,16.0,86,0.00,,,0.93,,2013-09-20 23:22:00,
2013-09-20 18:53:00,59.0,55.0,29.76,WNW,288,7.0,11.0,87,0.00,,,0.93,,2013-09-20 23:53:00,
2013-09-20 19:11:00,59.0,55.0,29.77,WNW,288,4.0,9.0,87,0.00,,,0.93,,2013-09-21 00:11:00,
2013-09-20 19:21:00,59.0,55.0,29.77,WNW,301,5.0,13.0,86,0.00,,,0.93,,2013-09-21 00:21:00,
2013-09-20 19:42:00,59.0,55.0,29.77,NW,311,2.0,8.0,87,0.00,,,0.93,,2013-09-21 00:42:00,
2013-09-20 19:52:00,59.0,55.0,29.78,NNW,331,3.0,8.0,86,0.00,,,0.93,,2013-09-21 00:52:00,
2013-09-20 20:12:00,59.0,54.0,29.78,NW,311,4.0,9.0,84,0.00,,,0.93,,2013-09-21 01:12:00,
2013-09-20 20:22:00,58.0,53.0,29.78,NW,308,3.0,9.0,84,0.00,,,0.37,,2013-09-21 01:22:00,
2013-09-20 20:42:00,58.0,54.0,29.79,North,350,1.0,8.0,85,0.00,,,0.37,,2013-09-21 01:42:00,
2013-09-20 20:52:00,58.0,54.0,29.79,WNW,300,3.0,6.0,85,0.00,,,0.37,,2013-09-21 01:52:00,
2013-09-20 21:12:00,58.0,54.0,29.80,WNW,297,2.0,6.0,86,0.00,,,0.37,,2013-09-21 02:12:00,
2013-09-20 21:22:00,57.0,53.0,29.80,WNW,292,2.0,8.0,86,0.00,,,0.31,,2013-09-21 02:22:00,
2013-09-20 21:42:00,57.0,53.0,29.80,NW,319,2.0,7.0,85,0.00,,,0.31,,2013-09-21 02:42:00,
2013-09-20 21:52:00,57.0,52.0,29.80,NW,304,3.0,7.0,84,0.00,,,0.31,,2013-09-21 02:52:00,
2013-09-20 22:12:00,56.0,51.0,29.80,NW,304,1.0,3.0,84,0.00,,,0.31,,2013-09-21 03:12:00,
2013-09-20 22:22:00,55.0,51.0,29.80,WNW,300,1.0,5.0,85,0.00,,,0.02,,2013-09-21 03:22:00,
2013-09-20 22:44:00,55.0,51.0,29.80,West,276,4.0,7.0,85,0.00,,,0.02,,2013-09-21 03:44:00,
2013-09-20 22:55:00,55.0,51.0,29.80,NW,324,3.0,8.0,86,0.00,,,0.02,,2013-09-21 03:55:00,
2013-09-20 23:14:00,54.0,50.0,29.81,WNW,286,4.0,7.0,85,0.00,,,0.02,,2013-09-21 04:14:00,
2013-09-20 23:24:00,54.0,50.0,29.81,West,279,4.0,8.0,85,0.00,,,0.02,,2013-09-21 04:24:00,
2013-09-20 23:54:00,53.0,49.0,29.81,WNW,294,3.0,8.0,86,0.00,,,0.02,,2013-09-21 04:54:00,